createdAt,value
2023-02-11T00:01:32.861Z,-2.57
2023-02-11T00:04:01.683Z,-2.55
2023-02-11T00:06:30.083Z,-2.55
2023-02-11T00:08:57.422Z,-2.57
2023-02-11T00:11:26.545Z,-2.57
2023-02-11T00:13:53.582Z,-2.59
2023-02-11T00:16:21.259Z,-2.62
2023-02-11T00:18:48.978Z,-2.69
2023-02-11T00:21:18.331Z,-2.80
2023-02-11T00:23:46.080Z,-2.80
2023-02-11T00:26:14.599Z,-2.81
2023-02-11T00:28:42.374Z,-2.80
2023-02-11T00:31:11.181Z,-2.83
2023-02-11T00:33:38.601Z,-2.86
2023-02-11T00:36:12.231Z,-2.85
2023-02-11T00:38:39.592Z,-2.82
2023-02-11T00:41:07.386Z,-2.82
2023-02-11T00:43:35.721Z,-2.84
2023-02-11T00:46:03.201Z,-2.86
2023-02-11T00:48:30.644Z,-2.91
2023-02-11T00:50:57.762Z,-2.95
2023-02-11T00:53:25.755Z,-2.92
2023-02-11T00:55:53.009Z,-2.99
2023-02-11T00:58:20.449Z,-2.95
2023-02-11T01:00:47.964Z,-3.03
2023-02-11T01:03:15.808Z,-2.96
2023-02-11T01:05:43.290Z,-2.88
2023-02-11T01:08:10.594Z,-2.89
2023-02-11T01:10:37.750Z,-2.97
2023-02-11T01:13:06.513Z,-2.96
2023-02-11T01:15:33.905Z,-3.03
2023-02-11T01:18:00.992Z,-3.10
2023-02-11T01:20:29.631Z,-3.21
2023-02-11T01:22:57.352Z,-3.23
2023-02-11T01:25:24.475Z,-3.25
2023-02-11T01:27:51.485Z,-3.25
2023-02-11T01:30:18.815Z,-3.26
2023-02-11T01:32:47.441Z,-3.18
2023-02-11T01:35:14.511Z,-3.20
2023-02-11T01:37:42.085Z,-3.31
2023-02-11T01:40:14.806Z,-3.32
2023-02-11T01:42:42.839Z,-3.29
2023-02-11T01:45:57.972Z,-3.33
2023-02-11T01:48:26.074Z,-3.36
2023-02-11T01:50:59.682Z,-3.30
2023-02-11T01:53:46.807Z,-3.30
2023-02-11T01:56:32.909Z,-3.35
2023-02-11T01:59:05.234Z,-3.36
2023-02-11T02:01:33.839Z,-3.40
2023-02-11T02:04:03.478Z,-3.38
2023-02-11T02:06:38.209Z,-3.37
2023-02-11T02:09:17.793Z,-3.45
2023-02-11T02:11:45.159Z,-3.41
2023-02-11T02:14:13.018Z,-3.48
2023-02-11T02:16:40.584Z,-3.44
2023-02-11T02:19:31.378Z,-3.47
2023-02-11T02:22:37.481Z,-3.52
2023-02-11T02:25:42.963Z,-3.47
2023-02-11T02:28:13.124Z,-3.43
2023-02-11T02:30:51.900Z,-3.37
2023-02-11T02:33:29.942Z,-3.41
2023-02-11T02:36:08.728Z,-3.42
2023-02-11T02:38:59.377Z,-3.39
2023-02-11T02:41:31.920Z,-3.29
2023-02-11T02:43:59.352Z,-3.23
2023-02-11T02:46:32.281Z,-3.25
2023-02-11T02:49:00.429Z,-3.34
2023-02-11T02:51:52.185Z,-3.46
2023-02-11T02:54:43.765Z,-3.54
2023-02-11T02:57:20.388Z,-3.74
2023-02-11T03:00:04.439Z,-3.81
2023-02-11T03:02:32.133Z,-3.81
2023-02-11T03:05:02.426Z,-3.75
2023-02-11T03:07:32.579Z,-3.67
2023-02-11T03:10:09.775Z,-3.62
2023-02-11T03:12:37.791Z,-3.40
2023-02-11T03:15:06.248Z,-3.13
2023-02-11T03:17:35.151Z,-2.93
2023-02-11T03:20:04.333Z,-2.82
2023-02-11T03:22:42.633Z,-2.75
2023-02-11T03:25:09.876Z,-2.61
2023-02-11T03:27:58.114Z,-2.55
2023-02-11T03:30:29.062Z,-2.48
2023-02-11T03:33:03.841Z,-2.48
2023-02-11T03:35:47.798Z,-2.51
2023-02-11T03:38:20.519Z,-2.40
2023-02-11T03:40:47.783Z,-2.44
2023-02-11T03:43:23.145Z,-2.43
2023-02-11T03:45:51.794Z,-2.37
2023-02-11T03:48:28.201Z,-2.35
2023-02-11T03:50:56.386Z,-2.40
2023-02-11T03:53:23.784Z,-2.42
2023-02-11T03:55:52.797Z,-2.44
2023-02-11T03:58:20.489Z,-2.46
2023-02-11T04:00:47.578Z,-2.43
2023-02-11T04:03:15.578Z,-2.48
2023-02-11T04:05:42.730Z,-2.53
2023-02-11T04:08:09.733Z,-2.58
2023-02-11T04:10:37.285Z,-2.57
2023-02-11T04:13:04.258Z,-2.61
2023-02-11T04:15:31.281Z,-2.73
2023-02-11T04:17:58.586Z,-2.77
2023-02-11T04:20:25.577Z,-2.83
2023-02-11T04:22:52.587Z,-2.89
2023-02-11T04:25:20.034Z,-2.82
2023-02-11T04:27:47.078Z,-2.88
2023-02-11T04:30:14.240Z,-2.84
2023-02-11T04:32:41.549Z,-2.75
2023-02-11T04:35:08.801Z,-2.70
2023-02-11T04:37:35.906Z,-2.65
2023-02-11T04:40:03.709Z,-2.57
2023-02-11T04:42:30.822Z,-2.54
2023-02-11T04:44:57.838Z,-2.54
2023-02-11T04:47:25.140Z,-2.55
2023-02-11T04:49:52.160Z,-2.60
2023-02-11T04:52:19.149Z,-2.53
2023-02-11T04:54:46.494Z,-2.55
2023-02-11T04:57:13.498Z,-2.61
2023-02-11T04:59:40.729Z,-2.72
2023-02-11T05:02:08.152Z,-2.71
2023-02-11T05:04:35.232Z,-2.75
2023-02-11T05:07:02.384Z,-2.85
2023-02-11T05:09:29.707Z,-2.89
2023-02-11T05:11:56.719Z,-2.94
2023-02-11T05:14:23.745Z,-2.92
2023-02-11T05:16:51.132Z,-2.87
2023-02-11T05:19:18.129Z,-2.91
2023-02-11T05:22:00.194Z,-2.92
2023-02-11T05:24:29.660Z,-2.93
2023-02-11T05:26:56.728Z,-2.96
2023-02-11T05:29:23.794Z,-3.01
2023-02-11T05:31:51.077Z,-3.06
2023-02-11T05:34:18.319Z,-2.97
2023-02-11T05:36:45.431Z,-2.97
2023-02-11T05:39:12.803Z,-2.99
2023-02-11T05:41:39.813Z,-3.02
2023-02-11T05:44:06.863Z,-2.99
2023-02-11T05:46:34.242Z,-3.01
2023-02-11T05:49:01.416Z,-3.02
2023-02-11T05:51:28.469Z,-2.99
2023-02-11T05:53:55.911Z,-2.99
2023-02-11T05:56:23.034Z,-3.04
2023-02-11T05:58:50.128Z,-3.03
2023-02-11T06:01:17.412Z,-3.01
2023-02-11T06:03:44.758Z,-2.95
2023-02-11T06:06:12.890Z,-2.87
2023-02-11T06:08:40.080Z,-2.84
2023-02-11T06:11:07.430Z,-2.76
2023-02-11T06:13:35.449Z,-2.73
2023-02-11T06:16:03.090Z,-2.68
2023-02-11T06:18:30.592Z,-2.64
2023-02-11T06:20:57.606Z,-2.59
2023-02-11T06:23:24.619Z,-2.59
2023-02-11T06:25:52.993Z,-2.54
2023-02-11T06:28:20.291Z,-2.47
2023-02-11T06:30:47.625Z,-2.32
2023-02-11T06:33:15.617Z,-2.22
2023-02-11T06:35:42.879Z,-2.16
2023-02-11T06:38:09.902Z,-2.09
2023-02-11T06:40:37.265Z,-1.98
2023-02-11T06:43:04.252Z,-1.88
2023-02-11T06:45:32.264Z,-1.81
2023-02-11T06:47:59.549Z,-1.71
2023-02-11T06:50:26.557Z,-1.65
2023-02-11T06:52:53.617Z,-1.59
2023-02-11T06:55:20.937Z,-1.53
2023-02-11T06:57:47.922Z,-1.44
2023-02-11T07:00:15.279Z,-1.33
2023-02-11T07:02:43.962Z,-1.27
2023-02-11T07:05:11.249Z,-1.26
2023-02-11T07:07:38.374Z,-1.23
2023-02-11T07:10:06.537Z,-1.20
2023-02-11T07:12:33.554Z,-1.17
2023-02-11T07:15:00.579Z,-1.15
2023-02-11T07:17:27.849Z,-1.07
2023-02-11T07:19:54.865Z,-1.08
2023-02-11T07:22:21.937Z,-1.04
2023-02-11T07:24:49.291Z,-0.98
2023-02-11T07:27:16.297Z,-0.87
2023-02-11T07:29:43.515Z,-0.68
2023-02-11T07:32:10.886Z,-0.44
2023-02-11T07:34:37.952Z,-0.40
2023-02-11T07:37:05.291Z,-0.21
2023-02-11T07:39:32.766Z,-0.19
2023-02-11T07:42:00.188Z,-0.11
2023-02-11T07:44:27.649Z,-0.14
2023-02-11T07:46:55.015Z,0.01
2023-02-11T07:49:22.455Z,-0.09
2023-02-11T07:51:51.263Z,-0.05
2023-02-11T07:54:19.702Z,0.03
2023-02-11T07:56:46.819Z,-0.02
2023-02-11T07:59:13.908Z,0.14
2023-02-11T08:01:41.444Z,0.16
2023-02-11T08:04:08.793Z,0.26
2023-02-11T08:06:41.372Z,0.38
2023-02-11T08:09:09.860Z,0.42
2023-02-11T08:11:37.173Z,0.59
2023-02-11T08:14:04.692Z,0.77
2023-02-11T08:16:34.362Z,0.82
2023-02-11T08:19:06.734Z,0.94
2023-02-11T08:21:34.265Z,1.04
2023-02-11T08:24:02.954Z,1.15
2023-02-11T08:26:31.801Z,1.15
2023-02-11T08:28:59.480Z,1.18
2023-02-11T08:31:30.806Z,1.20
2023-02-11T08:33:58.278Z,1.22
2023-02-11T08:36:29.084Z,1.27
2023-02-11T08:39:16.017Z,1.39
2023-02-11T08:41:50.114Z,1.55
2023-02-11T08:44:18.529Z,1.51
2023-02-11T08:46:46.402Z,1.57
2023-02-11T08:49:14.214Z,1.67
2023-02-11T08:51:41.330Z,1.73
2023-02-11T08:54:09.938Z,1.59
2023-02-11T08:56:38.686Z,1.74
2023-02-11T08:59:07.110Z,1.78
2023-02-11T09:01:34.583Z,1.93
2023-02-11T09:04:03.490Z,2.09
2023-02-11T09:06:30.872Z,2.02
2023-02-11T09:08:58.471Z,2.12
2023-02-11T09:11:29.062Z,2.21
2023-02-11T09:13:56.119Z,2.24
2023-02-11T09:16:26.322Z,2.34
2023-02-11T09:18:53.810Z,2.54
2023-02-11T09:21:20.954Z,2.62
2023-02-11T09:23:48.302Z,2.88
2023-02-11T09:26:16.668Z,3.02
2023-02-11T09:28:43.973Z,3.09
2023-02-11T09:31:15.248Z,3.22
2023-02-11T09:33:47.781Z,3.36
2023-02-11T09:36:18.060Z,3.63
2023-02-11T09:38:45.643Z,3.88
2023-02-11T09:41:30.918Z,3.91
2023-02-11T09:44:00.902Z,3.87
2023-02-11T09:46:32.145Z,3.80
2023-02-11T09:48:59.790Z,4.03
2023-02-11T09:51:39.918Z,4.21
2023-02-11T09:54:15.951Z,4.15
2023-02-11T09:56:42.978Z,4.34
2023-02-11T09:59:15.780Z,4.30
2023-02-11T10:01:49.370Z,4.42
2023-02-11T10:04:33.807Z,4.56
2023-02-11T10:07:10.768Z,4.78
2023-02-11T10:09:40.944Z,5.01
2023-02-11T10:12:10.938Z,5.07
2023-02-11T10:15:09.406Z,5.02
2023-02-11T10:17:46.828Z,5.10
2023-02-11T10:20:32.885Z,4.75
2023-02-11T10:23:02.443Z,4.66
2023-02-11T10:25:33.956Z,4.78
2023-02-11T10:28:10.462Z,4.71
2023-02-11T10:30:42.936Z,4.53
2023-02-11T10:33:22.013Z,4.37
2023-02-11T10:35:49.425Z,4.52
2023-02-11T10:38:16.545Z,4.67
2023-02-11T10:40:43.659Z,4.66
2023-02-11T10:43:14.137Z,4.86
2023-02-11T10:45:47.841Z,4.50
2023-02-11T10:48:41.565Z,4.34
2023-02-11T10:51:14.810Z,4.34
2023-02-11T10:53:42.223Z,4.61
2023-02-11T10:56:13.107Z,4.42
2023-02-11T10:58:45.576Z,4.47
2023-02-11T11:01:23.850Z,4.58
2023-02-11T11:03:52.818Z,4.73
2023-02-11T11:06:32.159Z,4.60
2023-02-11T11:08:59.371Z,4.66
2023-02-11T11:11:27.204Z,4.59
2023-02-11T11:13:58.217Z,4.58
2023-02-11T11:16:35.608Z,4.70
2023-02-11T11:19:09.241Z,4.72
2023-02-11T11:21:41.699Z,5.20
2023-02-11T11:24:31.446Z,5.50
2023-02-11T11:27:01.074Z,5.67
2023-02-11T11:29:47.216Z,5.98
2023-02-11T11:32:33.706Z,6.23
2023-02-11T11:35:10.088Z,6.33
2023-02-11T11:37:37.648Z,6.28
2023-02-11T11:40:11.440Z,6.33
2023-02-11T11:42:39.840Z,6.54
2023-02-11T11:45:16.437Z,6.51
2023-02-11T11:47:48.997Z,6.65
2023-02-11T11:50:37.452Z,6.46
2023-02-11T11:53:26.146Z,6.48
2023-02-11T11:56:00.391Z,6.34
2023-02-11T11:58:28.383Z,6.27
2023-02-11T12:01:33.204Z,6.34
2023-02-11T12:04:16.605Z,6.13
2023-02-11T12:07:02.346Z,6.16
2023-02-11T12:09:45.691Z,6.22
2023-02-11T12:12:32.637Z,6.34
2023-02-11T12:15:44.164Z,6.72
2023-02-11T12:18:36.280Z,6.69
2023-02-11T12:21:36.212Z,6.73
2023-02-11T12:24:23.794Z,6.78
2023-02-11T12:27:16.176Z,6.82
2023-02-11T12:29:43.262Z,6.91
2023-02-11T12:32:39.215Z,6.75
2023-02-11T12:35:33.772Z,6.79
2023-02-11T12:38:15.888Z,6.96
2023-02-11T12:40:58.255Z,6.86
2023-02-11T12:43:45.754Z,6.90
2023-02-11T12:46:32.947Z,7.01
2023-02-11T12:49:20.182Z,7.03
2023-02-11T12:52:01.347Z,7.06
2023-02-11T12:55:09.985Z,7.17
2023-02-11T12:57:38.367Z,7.02
2023-02-11T13:00:24.745Z,7.01
2023-02-11T13:02:56.643Z,6.93
2023-02-11T13:05:37.546Z,7.00
2023-02-11T13:08:14.755Z,7.09
2023-02-11T13:10:45.631Z,7.13
2023-02-11T13:13:28.831Z,7.12
2023-02-11T13:16:08.487Z,7.38
2023-02-11T13:18:52.765Z,7.36
2023-02-11T13:21:38.746Z,7.42
2023-02-11T13:24:12.816Z,7.39
2023-02-11T13:26:46.505Z,7.51
2023-02-11T13:29:52.237Z,7.59
2023-02-11T13:32:19.610Z,7.53
2023-02-11T13:34:55.473Z,7.60
2023-02-11T13:37:34.146Z,7.91
2023-02-11T13:40:04.384Z,7.98
2023-02-11T13:42:34.317Z,7.84
2023-02-11T13:45:01.563Z,7.80
2023-02-11T13:47:34.200Z,7.64
2023-02-11T13:50:05.530Z,7.46
2023-02-11T13:52:37.670Z,7.51
2023-02-11T13:55:13.756Z,7.47
2023-02-11T13:57:41.762Z,7.51
2023-02-11T14:00:33.494Z,7.46
2023-02-11T14:03:31.716Z,7.45
2023-02-11T14:06:29.229Z,7.39
2023-02-11T14:09:08.947Z,7.25
2023-02-11T14:11:41.921Z,7.19
2023-02-11T14:14:27.963Z,7.00
2023-02-11T14:17:07.108Z,7.01
2023-02-11T14:19:45.429Z,7.00
2023-02-11T14:22:26.756Z,6.85
2023-02-11T14:24:59.643Z,6.79
2023-02-11T14:27:56.733Z,6.78
2023-02-11T14:30:35.284Z,6.67
2023-02-11T14:33:22.700Z,6.62
2023-02-11T14:36:08.796Z,6.58
2023-02-11T14:38:38.528Z,6.55
2023-02-11T14:41:22.881Z,6.46
2023-02-11T14:43:59.454Z,6.47
2023-02-11T14:46:30.247Z,6.44
2023-02-11T14:49:00.136Z,6.39
2023-02-11T14:51:33.529Z,6.24
2023-02-11T14:54:18.288Z,6.18
2023-02-11T14:56:46.755Z,6.07
2023-02-11T14:59:20.187Z,6.02
2023-02-11T15:01:52.146Z,6.01
2023-02-11T15:04:37.833Z,5.83
2023-02-11T15:07:08.214Z,5.81
2023-02-11T15:09:40.816Z,5.76
2023-02-11T15:12:35.459Z,5.61
2023-02-11T15:15:02.534Z,5.59
2023-02-11T15:17:31.796Z,5.53
2023-02-11T15:20:00.900Z,5.47
2023-02-11T15:22:33.325Z,5.44
2023-02-11T15:25:11.828Z,5.43
2023-02-11T15:27:42.805Z,5.36
2023-02-11T15:30:22.029Z,5.29
2023-02-11T15:33:19.973Z,5.25
2023-02-11T15:35:47.288Z,5.21
2023-02-11T15:38:14.355Z,5.21
2023-02-11T15:41:01.053Z,5.17
2023-02-11T15:43:45.809Z,5.20
2023-02-11T15:46:22.023Z,5.18
2023-02-11T15:48:53.633Z,5.15
2023-02-11T15:51:25.196Z,5.09
2023-02-11T15:53:56.909Z,5.06
2023-02-11T15:56:25.603Z,4.96
2023-02-11T15:58:55.873Z,4.86
2023-02-11T16:01:37.027Z,4.79
2023-02-11T16:04:05.531Z,4.67
2023-02-11T16:06:41.590Z,4.57
2023-02-11T16:09:08.828Z,4.58
2023-02-11T16:11:51.419Z,4.52
2023-02-11T16:14:27.920Z,4.51
2023-02-11T16:17:20.120Z,4.43
2023-02-11T16:19:49.237Z,4.39
2023-02-11T16:22:26.291Z,4.29
2023-02-11T16:24:55.948Z,4.26
2023-02-11T16:27:27.501Z,4.23
2023-02-11T16:29:54.983Z,4.13
2023-02-11T16:32:23.439Z,4.15
2023-02-11T16:34:51.352Z,4.21
2023-02-11T16:37:18.835Z,4.25
2023-02-11T16:39:45.842Z,4.23
2023-02-11T16:42:13.232Z,4.28
2023-02-11T16:44:40.525Z,4.33
2023-02-11T16:47:16.880Z,4.31
2023-02-11T16:49:44.347Z,4.36
2023-02-11T16:52:15.739Z,4.35
2023-02-11T16:54:42.789Z,4.32
2023-02-11T16:57:19.206Z,4.39
2023-02-11T16:59:46.339Z,4.43
2023-02-11T17:02:25.577Z,4.43
2023-02-11T17:04:53.483Z,4.43
2023-02-11T17:07:21.151Z,4.39
2023-02-11T17:09:48.347Z,4.36
2023-02-11T17:12:15.514Z,4.30
2023-02-11T17:14:42.839Z,4.31
2023-02-11T17:17:10.862Z,4.30
2023-02-11T17:19:38.399Z,4.30
2023-02-11T17:22:06.449Z,4.22
2023-02-11T17:24:33.445Z,4.19
2023-02-11T17:27:00.620Z,4.17
2023-02-11T17:29:28.046Z,4.15
2023-02-11T17:31:55.247Z,4.12
2023-02-11T17:34:23.033Z,4.11
2023-02-11T17:36:50.531Z,3.96
2023-02-11T17:39:19.224Z,3.87
2023-02-11T17:41:46.223Z,3.76
2023-02-11T17:44:15.475Z,3.67
2023-02-11T17:46:42.841Z,3.49
2023-02-11T17:49:11.542Z,3.41
2023-02-11T17:51:40.079Z,3.41
2023-02-11T17:54:12.083Z,3.40
2023-02-11T17:56:39.762Z,3.38
2023-02-11T17:59:08.594Z,3.31
2023-02-11T18:01:36.730Z,3.40
2023-02-11T18:04:05.129Z,3.31
2023-02-11T18:06:33.816Z,3.35
2023-02-11T18:09:04.236Z,3.24
2023-02-11T18:11:33.748Z,3.26
2023-02-11T18:14:03.317Z,3.24
2023-02-11T18:16:30.930Z,3.22
2023-02-11T18:18:58.769Z,3.31
2023-02-11T18:21:26.379Z,3.38
2023-02-11T18:23:53.665Z,3.35
2023-02-11T18:26:21.996Z,3.37
2023-02-11T18:28:49.077Z,3.38
2023-02-11T18:31:17.319Z,3.35
2023-02-11T18:33:45.011Z,3.32
2023-02-11T18:36:14.419Z,3.38
2023-02-11T18:38:44.170Z,3.45
2023-02-11T18:41:12.798Z,3.47
2023-02-11T18:43:40.192Z,3.36
2023-02-11T18:46:10.495Z,3.34
2023-02-11T18:48:38.773Z,3.28
2023-02-11T18:51:15.092Z,3.13
2023-02-11T18:53:43.100Z,3.13
2023-02-11T18:56:15.546Z,3.09
2023-02-11T18:58:42.892Z,3.09
2023-02-11T19:01:15.586Z,3.09
2023-02-11T19:03:43.543Z,3.10
2023-02-11T19:06:19.788Z,3.19
2023-02-11T19:08:47.509Z,3.24
2023-02-11T19:11:17.281Z,3.26
2023-02-11T19:13:44.641Z,3.29
2023-02-11T19:16:14.953Z,3.32
2023-02-11T19:18:42.109Z,3.32
2023-02-11T19:21:10.366Z,3.38
2023-02-11T19:23:38.021Z,3.35
2023-02-11T19:26:06.392Z,3.34
2023-02-11T19:28:35.359Z,3.45
2023-02-11T19:31:07.923Z,3.47
2023-02-11T19:33:35.091Z,3.47
2023-02-11T19:36:06.958Z,3.51
2023-02-11T19:38:34.994Z,3.45
2023-02-11T19:41:02.387Z,3.50
2023-02-11T19:43:29.777Z,3.49
2023-02-11T19:45:57.643Z,3.53
2023-02-11T19:48:25.545Z,3.56
2023-02-11T19:50:52.932Z,3.58
2023-02-11T19:53:20.509Z,3.64
2023-02-11T19:55:48.204Z,3.66
2023-02-11T19:58:16.447Z,3.63
2023-02-11T20:00:43.897Z,3.57
2023-02-11T20:03:11.457Z,3.48
2023-02-11T20:05:46.962Z,3.54
2023-02-11T20:08:14.510Z,3.54
2023-02-11T20:10:41.578Z,3.50
2023-02-11T20:13:08.708Z,3.36
2023-02-11T20:15:36.710Z,3.31
2023-02-11T20:18:03.918Z,3.33
2023-02-11T20:20:30.989Z,3.28
2023-02-11T20:22:58.760Z,3.35
2023-02-11T20:25:25.850Z,3.35
2023-02-11T20:27:52.904Z,3.40
2023-02-11T20:30:21.748Z,3.37
2023-02-11T20:32:48.841Z,3.40
2023-02-11T20:35:15.975Z,3.41
2023-02-11T20:37:44.256Z,3.34
2023-02-11T20:40:11.776Z,3.34
2023-02-11T20:42:38.775Z,3.33
2023-02-11T20:45:06.350Z,3.29
2023-02-11T20:47:33.612Z,3.25
2023-02-11T20:50:00.718Z,3.21
2023-02-11T20:52:28.760Z,3.26
2023-02-11T20:54:55.823Z,3.26
2023-02-11T20:57:22.970Z,3.30
2023-02-11T20:59:50.427Z,3.33
2023-02-11T21:02:17.523Z,3.41
2023-02-11T21:04:44.521Z,3.36
2023-02-11T21:07:11.940Z,3.34
2023-02-11T21:09:39.631Z,3.43
2023-02-11T21:12:07.774Z,3.40
2023-02-11T21:14:35.125Z,3.41
2023-02-11T21:17:02.446Z,3.38
2023-02-11T21:19:29.521Z,3.43
2023-02-11T21:22:00.508Z,3.34
2023-02-11T21:24:27.672Z,3.34
2023-02-11T21:26:54.914Z,3.32
2023-02-11T21:29:22.716Z,3.36
2023-02-11T21:31:51.324Z,3.30
2023-02-11T21:34:20.084Z,3.36
2023-02-11T21:36:47.498Z,3.34
2023-02-11T21:39:14.508Z,3.36
2023-02-11T21:41:41.543Z,3.38
2023-02-11T21:44:09.385Z,3.33
2023-02-11T21:46:36.451Z,3.41
2023-02-11T21:49:03.566Z,3.40
2023-02-11T21:51:31.363Z,3.40
2023-02-11T21:54:01.372Z,3.44
2023-02-11T21:56:30.064Z,3.42
2023-02-11T21:58:58.599Z,3.46
2023-02-11T22:01:30.847Z,3.45
2023-02-11T22:03:58.867Z,3.42
2023-02-11T22:06:28.234Z,3.43
2023-02-11T22:08:55.648Z,3.40
2023-02-11T22:11:23.684Z,3.41
2023-02-11T22:13:55.286Z,3.40
2023-02-11T22:16:23.384Z,3.40
2023-02-11T22:18:51.518Z,3.32
2023-02-11T22:21:20.882Z,3.29
2023-02-11T22:23:48.491Z,3.15
2023-02-11T22:26:18.567Z,3.12
2023-02-11T22:28:46.159Z,3.13
2023-02-11T22:31:20.595Z,3.15
2023-02-11T22:33:47.739Z,3.10
2023-02-11T22:36:27.115Z,3.12
2023-02-11T22:38:54.887Z,3.14
2023-02-11T22:41:22.818Z,3.14
2023-02-11T22:43:49.914Z,3.12
2023-02-11T22:46:18.620Z,3.13
2023-02-11T22:48:46.781Z,3.13
2023-02-11T22:51:19.516Z,3.13
2023-02-11T22:54:01.763Z,3.17
2023-02-11T22:56:30.872Z,3.18
2023-02-11T22:59:03.368Z,3.19
2023-02-11T23:01:31.270Z,3.18
2023-02-11T23:04:03.861Z,3.27
2023-02-11T23:06:31.249Z,3.25
2023-02-11T23:08:58.883Z,3.26
2023-02-11T23:11:28.347Z,3.23
2023-02-11T23:13:55.908Z,3.15
2023-02-11T23:16:32.418Z,3.17
2023-02-11T23:19:00.886Z,3.18
2023-02-11T23:21:31.170Z,3.19
2023-02-11T23:24:00.362Z,3.24
2023-02-11T23:26:28.195Z,3.30
2023-02-11T23:28:56.107Z,3.32
2023-02-11T23:31:25.916Z,3.36
2023-02-11T23:33:53.190Z,3.41
2023-02-11T23:36:21.408Z,3.51
2023-02-11T23:38:49.060Z,3.58
2023-02-11T23:41:16.539Z,3.57
2023-02-11T23:43:44.335Z,3.54
2023-02-11T23:46:11.774Z,3.57
2023-02-11T23:48:40.475Z,3.57
2023-02-11T23:51:09.801Z,3.61
2023-02-11T23:53:37.946Z,3.61
2023-02-11T23:56:09.751Z,3.58
2023-02-11T23:58:37.255Z,3.63
